sensor_id;sensor_type;location;lat;lon;timestamp;P1;durP1;ratioP1;P2;durP2;ratioP2
71204;SDS011;58935;54.498;18.544;2024-01-27T00:02:00;27.60;;;4.70;;
71204;SDS011;58935;54.498;18.544;2024-01-27T00:04:26;21.60;;;4.50;;
71204;SDS011;58935;54.498;18.544;2024-01-27T00:06:51;26.30;;;5.00;;
71204;SDS011;58935;54.498;18.544;2024-01-27T00:09:17;23.20;;;4.60;;
71204;SDS011;58935;54.498;18.544;2024-01-27T00:11:42;28.10;;;4.80;;
71204;SDS011;58935;54.498;18.544;2024-01-27T00:14:08;27.80;;;4.50;;
71204;SDS011;58935;54.498;18.544;2024-01-27T00:16:33;25.20;;;4.60;;
71204;SDS011;58935;54.498;18.544;2024-01-27T00:18:59;25.70;;;4.90;;
71204;SDS011;58935;54.498;18.544;2024-01-27T00:21:24;21.70;;;4.40;;
71204;SDS011;58935;54.498;18.544;2024-01-27T00:23:52;32.00;;;4.70;;
71204;SDS011;58935;54.498;18.544;2024-01-27T00:26:18;18.50;;;4.30;;
71204;SDS011;58935;54.498;18.544;2024-01-27T00:28:46;24.60;;;3.70;;
71204;SDS011;58935;54.498;18.544;2024-01-27T00:31:11;14.20;;;3.30;;
71204;SDS011;58935;54.498;18.544;2024-01-27T00:33:37;14.60;;;3.30;;
71204;SDS011;58935;54.498;18.544;2024-01-27T00:36:05;21.00;;;3.90;;
71204;SDS011;58935;54.498;18.544;2024-01-27T00:38:30;21.90;;;4.40;;
71204;SDS011;58935;54.498;18.544;2024-01-27T00:40:56;12.10;;;2.80;;
71204;SDS011;58935;54.498;18.544;2024-01-27T00:43:21;17.30;;;3.60;;
71204;SDS011;58935;54.498;18.544;2024-01-27T00:45:49;20.70;;;4.00;;
71204;SDS011;58935;54.498;18.544;2024-01-27T00:48:15;16.80;;;3.20;;
71204;SDS011;58935;54.498;18.544;2024-01-27T00:50:40;20.10;;;4.70;;
71204;SDS011;58935;54.498;18.544;2024-01-27T00:53:06;16.90;;;3.00;;
71204;SDS011;58935;54.498;18.544;2024-01-27T00:55:31;19.90;;;4.10;;
71204;SDS011;58935;54.498;18.544;2024-01-27T00:57:57;16.40;;;3.80;;
71204;SDS011;58935;54.498;18.544;2024-01-27T01:00:22;13.70;;;2.80;;
71204;SDS011;58935;54.498;18.544;2024-01-27T01:02:47;17.40;;;3.30;;
71204;SDS011;58935;54.498;18.544;2024-01-27T01:05:15;18.20;;;4.20;;
71204;SDS011;58935;54.498;18.544;2024-01-27T01:07:41;12.70;;;3.30;;
71204;SDS011;58935;54.498;18.544;2024-01-27T01:10:06;13.90;;;3.30;;
71204;SDS011;58935;54.498;18.544;2024-01-27T01:12:32;11.20;;;3.00;;
71204;SDS011;58935;54.498;18.544;2024-01-27T01:14:58;14.00;;;3.70;;
71204;SDS011;58935;54.498;18.544;2024-01-27T01:17:23;15.00;;;3.10;;
71204;SDS011;58935;54.498;18.544;2024-01-27T01:19:51;11.60;;;3.40;;
71204;SDS011;58935;54.498;18.544;2024-01-27T01:22:17;17.50;;;3.10;;
71204;SDS011;58935;54.498;18.544;2024-01-27T01:24:42;14.90;;;3.20;;
71204;SDS011;58935;54.498;18.544;2024-01-27T01:27:08;19.30;;;3.50;;
71204;SDS011;58935;54.498;18.544;2024-01-27T01:29:33;11.00;;;2.30;;
71204;SDS011;58935;54.498;18.544;2024-01-27T01:31:59;9.60;;;2.60;;
71204;SDS011;58935;54.498;18.544;2024-01-27T01:34:26;9.20;;;2.40;;
71204;SDS011;58935;54.498;18.544;2024-01-27T01:36:52;9.20;;;2.60;;
71204;SDS011;58935;54.498;18.544;2024-01-27T01:39:19;10.40;;;2.60;;
71204;SDS011;58935;54.498;18.544;2024-01-27T01:41:44;7.10;;;2.10;;
71204;SDS011;58935;54.498;18.544;2024-01-27T01:44:12;8.20;;;2.00;;
71204;SDS011;58935;54.498;18.544;2024-01-27T01:46:38;5.90;;;2.10;;
71204;SDS011;58935;54.498;18.544;2024-01-27T01:49:03;8.20;;;2.30;;
71204;SDS011;58935;54.498;18.544;2024-01-27T01:51:30;6.60;;;1.90;;
71204;SDS011;58935;54.498;18.544;2024-01-27T01:53:58;6.90;;;2.10;;
71204;SDS011;58935;54.498;18.544;2024-01-27T01:56:27;9.80;;;2.10;;
71204;SDS011;58935;54.498;18.544;2024-01-27T01:58:56;8.50;;;2.00;;
71204;SDS011;58935;54.498;18.544;2024-01-27T02:01:24;7.70;;;2.20;;
71204;SDS011;58935;54.498;18.544;2024-01-27T02:03:53;4.30;;;1.90;;
71204;SDS011;58935;54.498;18.544;2024-01-27T02:06:20;8.00;;;1.90;;
71204;SDS011;58935;54.498;18.544;2024-01-27T02:08:46;6.90;;;1.60;;
71204;SDS011;58935;54.498;18.544;2024-01-27T02:11:11;1.90;;;1.10;;
71204;SDS011;58935;54.498;18.544;2024-01-27T02:13:37;3.40;;;1.50;;
71204;SDS011;58935;54.498;18.544;2024-01-27T02:16:03;3.70;;;1.70;;
71204;SDS011;58935;54.498;18.544;2024-01-27T02:18:29;6.30;;;1.50;;
71204;SDS011;58935;54.498;18.544;2024-01-27T02:20:54;5.90;;;1.60;;
71204;SDS011;58935;54.498;18.544;2024-01-27T02:23:20;7.10;;;1.90;;
71204;SDS011;58935;54.498;18.544;2024-01-27T02:25:46;4.40;;;1.40;;
71204;SDS011;58935;54.498;18.544;2024-01-27T02:28:11;5.90;;;1.80;;
71204;SDS011;58935;54.498;18.544;2024-01-27T02:30:38;5.00;;;1.30;;
71204;SDS011;58935;54.498;18.544;2024-01-27T02:33:04;5.10;;;1.60;;
71204;SDS011;58935;54.498;18.544;2024-01-27T02:35:30;5.30;;;1.90;;
71204;SDS011;58935;54.498;18.544;2024-01-27T02:37:58;5.80;;;1.50;;
71204;SDS011;58935;54.498;18.544;2024-01-27T02:40:25;3.60;;;1.40;;
71204;SDS011;58935;54.498;18.544;2024-01-27T02:42:51;3.40;;;1.40;;
71204;SDS011;58935;54.498;18.544;2024-01-27T02:45:17;6.40;;;1.70;;
71204;SDS011;58935;54.498;18.544;2024-01-27T02:47:45;3.80;;;1.40;;
71204;SDS011;58935;54.498;18.544;2024-01-27T02:50:13;1.90;;;1.00;;
71204;SDS011;58935;54.498;18.544;2024-01-27T02:52:39;2.40;;;1.40;;
71204;SDS011;58935;54.498;18.544;2024-01-27T02:55:05;2.80;;;1.20;;
71204;SDS011;58935;54.498;18.544;2024-01-27T02:57:31;1.80;;;0.90;;
71204;SDS011;58935;54.498;18.544;2024-01-27T02:59:56;2.20;;;1.20;;
71204;SDS011;58935;54.498;18.544;2024-01-27T03:02:22;2.70;;;1.30;;
71204;SDS011;58935;54.498;18.544;2024-01-27T03:04:48;4.60;;;1.30;;
71204;SDS011;58935;54.498;18.544;2024-01-27T03:07:13;5.10;;;1.30;;
71204;SDS011;58935;54.498;18.544;2024-01-27T03:09:39;1.60;;;1.30;;
71204;SDS011;58935;54.498;18.544;2024-01-27T03:12:07;4.10;;;1.30;;
71204;SDS011;58935;54.498;18.544;2024-01-27T03:14:33;5.80;;;1.60;;
71204;SDS011;58935;54.498;18.544;2024-01-27T03:16:58;2.40;;;1.20;;
71204;SDS011;58935;54.498;18.544;2024-01-27T03:19:24;1.50;;;0.80;;
71204;SDS011;58935;54.498;18.544;2024-01-27T03:21:49;1.80;;;1.00;;
71204;SDS011;58935;54.498;18.544;2024-01-27T03:24:15;2.50;;;1.20;;
71204;SDS011;58935;54.498;18.544;2024-01-27T03:26:40;0.70;;;0.60;;
71204;SDS011;58935;54.498;18.544;2024-01-27T03:29:08;1.90;;;1.00;;
71204;SDS011;58935;54.498;18.544;2024-01-27T03:31:33;2.50;;;1.20;;
71204;SDS011;58935;54.498;18.544;2024-01-27T03:33:59;1.20;;;0.90;;
71204;SDS011;58935;54.498;18.544;2024-01-27T03:36:26;1.90;;;1.10;;
71204;SDS011;58935;54.498;18.544;2024-01-27T03:38:56;3.50;;;1.20;;
71204;SDS011;58935;54.498;18.544;2024-01-27T03:41:25;1.30;;;1.20;;
71204;SDS011;58935;54.498;18.544;2024-01-27T03:43:54;3.00;;;1.20;;
71204;SDS011;58935;54.498;18.544;2024-01-27T03:46:19;1.80;;;0.90;;
71204;SDS011;58935;54.498;18.544;2024-01-27T03:48:47;2.60;;;1.20;;
71204;SDS011;58935;54.498;18.544;2024-01-27T03:51:12;2.80;;;1.10;;
71204;SDS011;58935;54.498;18.544;2024-01-27T03:53:38;3.20;;;0.90;;
71204;SDS011;58935;54.498;18.544;2024-01-27T03:56:04;6.20;;;1.40;;
71204;SDS011;58935;54.498;18.544;2024-01-27T03:58:30;2.80;;;1.10;;
71204;SDS011;58935;54.498;18.544;2024-01-27T04:00:57;3.20;;;1.10;;
71204;SDS011;58935;54.498;18.544;2024-01-27T04:03:23;1.40;;;1.00;;
71204;SDS011;58935;54.498;18.544;2024-01-27T04:05:48;3.10;;;1.70;;
71204;SDS011;58935;54.498;18.544;2024-01-27T04:08:14;1.70;;;1.10;;
71204;SDS011;58935;54.498;18.544;2024-01-27T04:10:39;2.90;;;1.20;;
71204;SDS011;58935;54.498;18.544;2024-01-27T04:13:05;4.10;;;1.30;;
71204;SDS011;58935;54.498;18.544;2024-01-27T04:15:33;2.20;;;1.00;;
71204;SDS011;58935;54.498;18.544;2024-01-27T04:18:04;1.20;;;0.70;;
71204;SDS011;58935;54.498;18.544;2024-01-27T04:20:33;1.70;;;0.90;;
71204;SDS011;58935;54.498;18.544;2024-01-27T04:23:01;1.20;;;0.80;;
71204;SDS011;58935;54.498;18.544;2024-01-27T04:25:27;2.00;;;0.80;;
71204;SDS011;58935;54.498;18.544;2024-01-27T04:27:55;2.40;;;0.90;;
71204;SDS011;58935;54.498;18.544;2024-01-27T04:30:21;2.70;;;1.00;;
71204;SDS011;58935;54.498;18.544;2024-01-27T04:32:46;2.20;;;0.90;;
71204;SDS011;58935;54.498;18.544;2024-01-27T04:35:14;2.80;;;0.90;;
71204;SDS011;58935;54.498;18.544;2024-01-27T04:37:42;1.20;;;1.00;;
71204;SDS011;58935;54.498;18.544;2024-01-27T04:40:10;1.30;;;0.80;;
71204;SDS011;58935;54.498;18.544;2024-01-27T04:42:38;1.40;;;0.80;;
71204;SDS011;58935;54.498;18.544;2024-01-27T04:45:05;1.00;;;0.60;;
71204;SDS011;58935;54.498;18.544;2024-01-27T04:47:31;0.70;;;0.70;;
71204;SDS011;58935;54.498;18.544;2024-01-27T04:49:57;1.00;;;0.70;;
71204;SDS011;58935;54.498;18.544;2024-01-27T04:52:23;1.10;;;0.70;;
71204;SDS011;58935;54.498;18.544;2024-01-27T04:54:49;0.60;;;0.60;;
71204;SDS011;58935;54.498;18.544;2024-01-27T04:57:17;0.70;;;0.50;;
71204;SDS011;58935;54.498;18.544;2024-01-27T04:59:43;0.90;;;0.50;;
71204;SDS011;58935;54.498;18.544;2024-01-27T05:02:11;0.70;;;0.60;;
71204;SDS011;58935;54.498;18.544;2024-01-27T05:04:37;0.50;;;0.50;;
71204;SDS011;58935;54.498;18.544;2024-01-27T05:07:03;0.50;;;0.50;;
71204;SDS011;58935;54.498;18.544;2024-01-27T05:09:29;0.60;;;0.60;;
71204;SDS011;58935;54.498;18.544;2024-01-27T05:11:55;0.60;;;0.60;;
71204;SDS011;58935;54.498;18.544;2024-01-27T05:14:20;0.60;;;0.60;;
71204;SDS011;58935;54.498;18.544;2024-01-27T05:16:46;0.80;;;0.70;;
71204;SDS011;58935;54.498;18.544;2024-01-27T05:19:11;0.70;;;0.70;;
71204;SDS011;58935;54.498;18.544;2024-01-27T05:21:38;0.60;;;0.60;;
71204;SDS011;58935;54.498;18.544;2024-01-27T05:24:04;0.70;;;0.50;;
71204;SDS011;58935;54.498;18.544;2024-01-27T05:26:30;0.70;;;0.70;;
71204;SDS011;58935;54.498;18.544;2024-01-27T05:28:56;0.80;;;0.80;;
71204;SDS011;58935;54.498;18.544;2024-01-27T05:31:21;0.90;;;0.90;;
71204;SDS011;58935;54.498;18.544;2024-01-27T05:33:47;0.90;;;0.90;;
71204;SDS011;58935;54.498;18.544;2024-01-27T05:36:12;0.70;;;0.70;;
71204;SDS011;58935;54.498;18.544;2024-01-27T05:38:38;0.90;;;0.80;;
71204;SDS011;58935;54.498;18.544;2024-01-27T05:41:03;0.60;;;0.60;;
71204;SDS011;58935;54.498;18.544;2024-01-27T05:43:29;1.10;;;1.00;;
71204;SDS011;58935;54.498;18.544;2024-01-27T05:45:55;0.60;;;0.60;;
71204;SDS011;58935;54.498;18.544;2024-01-27T05:48:21;1.00;;;0.80;;
71204;SDS011;58935;54.498;18.544;2024-01-27T05:53:22;1.00;;;1.00;;
71204;SDS011;58935;54.498;18.544;2024-01-27T05:55:48;3.50;;;1.20;;
71204;SDS011;58935;54.498;18.544;2024-01-27T05:58:13;1.40;;;1.30;;
71204;SDS011;58935;54.498;18.544;2024-01-27T06:00:39;1.40;;;1.30;;
71204;SDS011;58935;54.498;18.544;2024-01-27T06:03:04;1.30;;;1.00;;
71204;SDS011;58935;54.498;18.544;2024-01-27T06:05:30;1.20;;;1.10;;
71204;SDS011;58935;54.498;18.544;2024-01-27T06:07:55;1.00;;;1.00;;
71204;SDS011;58935;54.498;18.544;2024-01-27T06:10:21;1.70;;;1.00;;
71204;SDS011;58935;54.498;18.544;2024-01-27T06:12:52;3.50;;;1.30;;
71204;SDS011;58935;54.498;18.544;2024-01-27T06:15:17;5.90;;;1.70;;
71204;SDS011;58935;54.498;18.544;2024-01-27T06:17:43;3.10;;;1.00;;
71204;SDS011;58935;54.498;18.544;2024-01-27T06:20:08;1.70;;;1.40;;
71204;SDS011;58935;54.498;18.544;2024-01-27T06:22:34;1.10;;;1.00;;
71204;SDS011;58935;54.498;18.544;2024-01-27T06:25:00;4.40;;;1.40;;
71204;SDS011;58935;54.498;18.544;2024-01-27T06:27:25;7.30;;;1.40;;
71204;SDS011;58935;54.498;18.544;2024-01-27T06:29:53;0.90;;;0.90;;
71204;SDS011;58935;54.498;18.544;2024-01-27T06:32:18;3.10;;;1.20;;
71204;SDS011;58935;54.498;18.544;2024-01-27T06:34:43;1.80;;;1.10;;
71204;SDS011;58935;54.498;18.544;2024-01-27T06:37:11;3.50;;;1.20;;
71204;SDS011;58935;54.498;18.544;2024-01-27T06:39:39;3.80;;;1.60;;
71204;SDS011;58935;54.498;18.544;2024-01-27T06:42:04;3.10;;;1.60;;
71204;SDS011;58935;54.498;18.544;2024-01-27T06:44:30;1.80;;;1.20;;
71204;SDS011;58935;54.498;18.544;2024-01-27T06:46:55;0.90;;;0.90;;
71204;SDS011;58935;54.498;18.544;2024-01-27T06:49:21;1.80;;;0.90;;
71204;SDS011;58935;54.498;18.544;2024-01-27T06:51:47;4.50;;;1.20;;
71204;SDS011;58935;54.498;18.544;2024-01-27T06:54:15;1.60;;;1.10;;
71204;SDS011;58935;54.498;18.544;2024-01-27T06:56:40;2.10;;;1.10;;
71204;SDS011;58935;54.498;18.544;2024-01-27T06:59:08;1.10;;;1.10;;
71204;SDS011;58935;54.498;18.544;2024-01-27T07:01:33;2.70;;;1.20;;
71204;SDS011;58935;54.498;18.544;2024-01-27T07:03:59;2.10;;;1.10;;
71204;SDS011;58935;54.498;18.544;2024-01-27T07:06:24;1.20;;;0.90;;
71204;SDS011;58935;54.498;18.544;2024-01-27T07:08:50;1.40;;;1.10;;
71204;SDS011;58935;54.498;18.544;2024-01-27T07:11:16;1.20;;;0.90;;
71204;SDS011;58935;54.498;18.544;2024-01-27T07:13:44;1.10;;;1.10;;
71204;SDS011;58935;54.498;18.544;2024-01-27T07:16:09;1.60;;;1.20;;
71204;SDS011;58935;54.498;18.544;2024-01-27T07:18:34;1.20;;;1.20;;
71204;SDS011;58935;54.498;18.544;2024-01-27T07:21:01;4.30;;;1.20;;
71204;SDS011;58935;54.498;18.544;2024-01-27T07:23:29;2.40;;;1.20;;
71204;SDS011;58935;54.498;18.544;2024-01-27T07:25:54;1.90;;;1.30;;
71204;SDS011;58935;54.498;18.544;2024-01-27T07:28:28;2.10;;;1.50;;
71204;SDS011;58935;54.498;18.544;2024-01-27T07:30:53;2.60;;;1.20;;
71204;SDS011;58935;54.498;18.544;2024-01-27T07:33:21;1.50;;;1.30;;
71204;SDS011;58935;54.498;18.544;2024-01-27T07:35:49;1.50;;;1.30;;
71204;SDS011;58935;54.498;18.544;2024-01-27T07:38:15;1.30;;;1.20;;
71204;SDS011;58935;54.498;18.544;2024-01-27T07:40:40;1.80;;;1.30;;
71204;SDS011;58935;54.498;18.544;2024-01-27T07:43:06;1.60;;;1.10;;
71204;SDS011;58935;54.498;18.544;2024-01-27T07:45:31;1.40;;;1.30;;
71204;SDS011;58935;54.498;18.544;2024-01-27T07:47:58;1.70;;;1.40;;
71204;SDS011;58935;54.498;18.544;2024-01-27T07:50:26;1.60;;;1.50;;
71204;SDS011;58935;54.498;18.544;2024-01-27T07:52:52;2.30;;;1.70;;
71204;SDS011;58935;54.498;18.544;2024-01-27T07:55:20;2.40;;;1.50;;
71204;SDS011;58935;54.498;18.544;2024-01-27T07:57:45;1.90;;;1.60;;
71204;SDS011;58935;54.498;18.544;2024-01-27T08:00:11;1.50;;;1.40;;
71204;SDS011;58935;54.498;18.544;2024-01-27T08:02:37;1.30;;;1.20;;
71204;SDS011;58935;54.498;18.544;2024-01-27T08:05:03;2.90;;;1.50;;
71204;SDS011;58935;54.498;18.544;2024-01-27T08:07:29;1.70;;;1.50;;
71204;SDS011;58935;54.498;18.544;2024-01-27T08:09:55;2.10;;;1.30;;
71204;SDS011;58935;54.498;18.544;2024-01-27T08:12:22;1.90;;;1.50;;
71204;SDS011;58935;54.498;18.544;2024-01-27T08:14:48;4.40;;;1.50;;
71204;SDS011;58935;54.498;18.544;2024-01-27T08:17:14;1.30;;;1.20;;
71204;SDS011;58935;54.498;18.544;2024-01-27T08:19:40;2.10;;;1.60;;
71204;SDS011;58935;54.498;18.544;2024-01-27T08:22:05;2.00;;;1.20;;
71204;SDS011;58935;54.498;18.544;2024-01-27T08:24:30;2.80;;;1.70;;
71204;SDS011;58935;54.498;18.544;2024-01-27T08:26:57;2.30;;;1.50;;
71204;SDS011;58935;54.498;18.544;2024-01-27T08:29:23;3.20;;;2.10;;
71204;SDS011;58935;54.498;18.544;2024-01-27T08:31:49;2.90;;;1.50;;
71204;SDS011;58935;54.498;18.544;2024-01-27T08:34:16;3.30;;;1.90;;
71204;SDS011;58935;54.498;18.544;2024-01-27T08:36:42;3.10;;;1.80;;
71204;SDS011;58935;54.498;18.544;2024-01-27T08:39:07;4.10;;;2.50;;
71204;SDS011;58935;54.498;18.544;2024-01-27T08:41:34;2.80;;;1.80;;
71204;SDS011;58935;54.498;18.544;2024-01-27T08:43:59;1.70;;;1.60;;
71204;SDS011;58935;54.498;18.544;2024-01-27T08:46:25;1.90;;;1.80;;
71204;SDS011;58935;54.498;18.544;2024-01-27T08:48:50;2.80;;;2.00;;
71204;SDS011;58935;54.498;18.544;2024-01-27T08:51:16;5.60;;;1.60;;
71204;SDS011;58935;54.498;18.544;2024-01-27T08:53:43;2.40;;;1.80;;
71204;SDS011;58935;54.498;18.544;2024-01-27T08:56:15;10.10;;;2.50;;
71204;SDS011;58935;54.498;18.544;2024-01-27T08:58:44;7.00;;;3.30;;
71204;SDS011;58935;54.498;18.544;2024-01-27T09:01:13;2.50;;;2.20;;
71204;SDS011;58935;54.498;18.544;2024-01-27T09:03:40;3.00;;;2.40;;
71204;SDS011;58935;54.498;18.544;2024-01-27T09:06:06;4.20;;;2.40;;
71204;SDS011;58935;54.498;18.544;2024-01-27T09:08:34;2.40;;;2.00;;
71204;SDS011;58935;54.498;18.544;2024-01-27T09:11:03;2.50;;;1.70;;
71204;SDS011;58935;54.498;18.544;2024-01-27T09:13:29;2.20;;;1.90;;
71204;SDS011;58935;54.498;18.544;2024-01-27T09:15:56;3.20;;;2.50;;
71204;SDS011;58935;54.498;18.544;2024-01-27T09:18:22;2.70;;;2.00;;
71204;SDS011;58935;54.498;18.544;2024-01-27T09:20:48;2.60;;;2.40;;
71204;SDS011;58935;54.498;18.544;2024-01-27T09:23:16;2.40;;;2.20;;
71204;SDS011;58935;54.498;18.544;2024-01-27T09:25:41;5.90;;;2.30;;
71204;SDS011;58935;54.498;18.544;2024-01-27T09:28:07;3.70;;;2.60;;
71204;SDS011;58935;54.498;18.544;2024-01-27T09:30:35;3.30;;;2.40;;
71204;SDS011;58935;54.498;18.544;2024-01-27T09:33:00;7.30;;;2.50;;
71204;SDS011;58935;54.498;18.544;2024-01-27T09:35:26;4.70;;;2.60;;
71204;SDS011;58935;54.498;18.544;2024-01-27T09:37:51;4.20;;;2.20;;
71204;SDS011;58935;54.498;18.544;2024-01-27T09:40:16;3.10;;;2.40;;
71204;SDS011;58935;54.498;18.544;2024-01-27T09:42:50;5.60;;;2.40;;
71204;SDS011;58935;54.498;18.544;2024-01-27T09:45:19;3.70;;;2.90;;
71204;SDS011;58935;54.498;18.544;2024-01-27T09:47:47;8.40;;;3.30;;
71204;SDS011;58935;54.498;18.544;2024-01-27T09:50:14;3.30;;;2.20;;
71204;SDS011;58935;54.498;18.544;2024-01-27T09:52:40;7.40;;;2.40;;
71204;SDS011;58935;54.498;18.544;2024-01-27T09:55:08;6.10;;;2.50;;
71204;SDS011;58935;54.498;18.544;2024-01-27T09:57:34;8.20;;;2.90;;
71204;SDS011;58935;54.498;18.544;2024-01-27T10:00:04;3.80;;;2.50;;
71204;SDS011;58935;54.498;18.544;2024-01-27T10:02:39;10.10;;;2.70;;
71204;SDS011;58935;54.498;18.544;2024-01-27T10:05:08;5.00;;;2.40;;
71204;SDS011;58935;54.498;18.544;2024-01-27T10:07:34;2.20;;;1.80;;
71204;SDS011;58935;54.498;18.544;2024-01-27T10:10:00;4.60;;;2.40;;
71204;SDS011;58935;54.498;18.544;2024-01-27T10:12:28;3.00;;;1.90;;
71204;SDS011;58935;54.498;18.544;2024-01-27T10:14:54;6.40;;;2.60;;
71204;SDS011;58935;54.498;18.544;2024-01-27T10:17:21;7.10;;;2.30;;
71204;SDS011;58935;54.498;18.544;2024-01-27T10:22:26;9.30;;;3.00;;
71204;SDS011;58935;54.498;18.544;2024-01-27T10:24:52;3.70;;;2.20;;
71204;SDS011;58935;54.498;18.544;2024-01-27T10:27:21;3.10;;;1.70;;
71204;SDS011;58935;54.498;18.544;2024-01-27T10:29:52;4.90;;;2.20;;
71204;SDS011;58935;54.498;18.544;2024-01-27T10:32:19;2.10;;;1.80;;
71204;SDS011;58935;54.498;18.544;2024-01-27T10:34:44;6.20;;;1.90;;
71204;SDS011;58935;54.498;18.544;2024-01-27T10:37:12;5.10;;;1.70;;
71204;SDS011;58935;54.498;18.544;2024-01-27T10:39:38;4.30;;;1.80;;
71204;SDS011;58935;54.498;18.544;2024-01-27T10:42:05;5.40;;;1.90;;
71204;SDS011;58935;54.498;18.544;2024-01-27T10:44:33;1.70;;;1.50;;
71204;SDS011;58935;54.498;18.544;2024-01-27T10:47:02;6.60;;;1.50;;
71204;SDS011;58935;54.498;18.544;2024-01-27T10:49:34;4.70;;;2.50;;
71204;SDS011;58935;54.498;18.544;2024-01-27T10:52:06;9.20;;;2.30;;
71204;SDS011;58935;54.498;18.544;2024-01-27T10:54:38;7.00;;;2.60;;
71204;SDS011;58935;54.498;18.544;2024-01-27T10:57:07;3.90;;;2.20;;
71204;SDS011;58935;54.498;18.544;2024-01-27T10:59:35;9.40;;;3.10;;
71204;SDS011;58935;54.498;18.544;2024-01-27T11:02:03;5.20;;;2.70;;
71204;SDS011;58935;54.498;18.544;2024-01-27T11:04:31;5.40;;;2.70;;
71204;SDS011;58935;54.498;18.544;2024-01-27T11:07:00;6.90;;;2.80;;
71204;SDS011;58935;54.498;18.544;2024-01-27T11:09:28;3.90;;;2.70;;
71204;SDS011;58935;54.498;18.544;2024-01-27T11:11:56;2.90;;;1.80;;
71204;SDS011;58935;54.498;18.544;2024-01-27T11:14:22;5.20;;;2.30;;
71204;SDS011;58935;54.498;18.544;2024-01-27T11:16:47;2.60;;;1.70;;
71204;SDS011;58935;54.498;18.544;2024-01-27T11:19:16;6.10;;;1.90;;
71204;SDS011;58935;54.498;18.544;2024-01-27T11:21:43;3.50;;;1.60;;
71204;SDS011;58935;54.498;18.544;2024-01-27T11:24:14;5.10;;;2.00;;
71204;SDS011;58935;54.498;18.544;2024-01-27T11:26:41;6.10;;;2.00;;
71204;SDS011;58935;54.498;18.544;2024-01-27T11:29:07;2.70;;;1.60;;
71204;SDS011;58935;54.498;18.544;2024-01-27T11:31:35;2.90;;;1.90;;
71204;SDS011;58935;54.498;18.544;2024-01-27T11:34:00;8.70;;;2.20;;
71204;SDS011;58935;54.498;18.544;2024-01-27T11:36:27;4.20;;;1.90;;
71204;SDS011;58935;54.498;18.544;2024-01-27T11:38:55;3.90;;;2.40;;
71204;SDS011;58935;54.498;18.544;2024-01-27T11:41:25;2.70;;;1.70;;
71204;SDS011;58935;54.498;18.544;2024-01-27T11:43:54;5.50;;;2.10;;
71204;SDS011;58935;54.498;18.544;2024-01-27T11:46:20;8.90;;;2.40;;
71204;SDS011;58935;54.498;18.544;2024-01-27T11:48:46;4.50;;;2.10;;
71204;SDS011;58935;54.498;18.544;2024-01-27T11:51:12;10.30;;;2.70;;
71204;SDS011;58935;54.498;18.544;2024-01-27T11:53:38;6.20;;;2.70;;
71204;SDS011;58935;54.498;18.544;2024-01-27T11:56:04;5.20;;;2.80;;
71204;SDS011;58935;54.498;18.544;2024-01-27T11:58:34;4.80;;;2.60;;
71204;SDS011;58935;54.498;18.544;2024-01-27T12:00:59;3.50;;;2.30;;
71204;SDS011;58935;54.498;18.544;2024-01-27T12:03:26;7.10;;;2.10;;
71204;SDS011;58935;54.498;18.544;2024-01-27T12:05:53;11.20;;;3.20;;
71204;SDS011;58935;54.498;18.544;2024-01-27T12:08:19;10.60;;;2.80;;
71204;SDS011;58935;54.498;18.544;2024-01-27T12:10:44;8.40;;;2.60;;
71204;SDS011;58935;54.498;18.544;2024-01-27T12:13:10;7.60;;;2.30;;
71204;SDS011;58935;54.498;18.544;2024-01-27T12:15:36;7.80;;;2.80;;
71204;SDS011;58935;54.498;18.544;2024-01-27T12:18:04;8.70;;;2.30;;
71204;SDS011;58935;54.498;18.544;2024-01-27T12:20:30;7.00;;;2.70;;
71204;SDS011;58935;54.498;18.544;2024-01-27T12:25:28;2.60;;;2.00;;
71204;SDS011;58935;54.498;18.544;2024-01-27T12:27:53;9.70;;;2.40;;
71204;SDS011;58935;54.498;18.544;2024-01-27T12:30:21;6.40;;;2.60;;
71204;SDS011;58935;54.498;18.544;2024-01-27T12:32:47;17.00;;;6.50;;
71204;SDS011;58935;54.498;18.544;2024-01-27T12:35:13;37.10;;;16.70;;
71204;SDS011;58935;54.498;18.544;2024-01-27T12:37:39;82.00;;;30.00;;
71204;SDS011;58935;54.498;18.544;2024-01-27T12:40:21;8.30;;;4.30;;
71204;SDS011;58935;54.498;18.544;2024-01-27T12:42:48;13.10;;;4.80;;
71204;SDS011;58935;54.498;18.544;2024-01-27T12:45:16;13.90;;;3.60;;
71204;SDS011;58935;54.498;18.544;2024-01-27T12:47:46;4.50;;;3.20;;
71204;SDS011;58935;54.498;18.544;2024-01-27T12:50:11;5.70;;;2.70;;
71204;SDS011;58935;54.498;18.544;2024-01-27T12:52:39;7.00;;;3.90;;
71204;SDS011;58935;54.498;18.544;2024-01-27T12:55:08;12.50;;;4.20;;
71204;SDS011;58935;54.498;18.544;2024-01-27T12:57:36;9.10;;;4.30;;
71204;SDS011;58935;54.498;18.544;2024-01-27T13:00:02;8.60;;;2.80;;
71204;SDS011;58935;54.498;18.544;2024-01-27T13:02:34;11.20;;;3.70;;
71204;SDS011;58935;54.498;18.544;2024-01-27T13:05:00;7.50;;;2.80;;
71204;SDS011;58935;54.498;18.544;2024-01-27T13:07:25;9.30;;;4.00;;
71204;SDS011;58935;54.498;18.544;2024-01-27T13:09:51;5.40;;;2.20;;
71204;SDS011;58935;54.498;18.544;2024-01-27T13:12:16;9.70;;;2.50;;
71204;SDS011;58935;54.498;18.544;2024-01-27T13:14:42;6.80;;;2.40;;
71204;SDS011;58935;54.498;18.544;2024-01-27T13:17:10;9.10;;;3.00;;
71204;SDS011;58935;54.498;18.544;2024-01-27T13:19:35;10.20;;;2.80;;
71204;SDS011;58935;54.498;18.544;2024-01-27T13:22:01;4.80;;;2.00;;
71204;SDS011;58935;54.498;18.544;2024-01-27T13:24:28;5.20;;;2.20;;
71204;SDS011;58935;54.498;18.544;2024-01-27T13:26:53;8.30;;;2.30;;
71204;SDS011;58935;54.498;18.544;2024-01-27T13:29:19;8.80;;;2.30;;
71204;SDS011;58935;54.498;18.544;2024-01-27T13:31:46;8.80;;;3.40;;
71204;SDS011;58935;54.498;18.544;2024-01-27T13:34:12;10.60;;;2.30;;
71204;SDS011;58935;54.498;18.544;2024-01-27T13:36:40;6.80;;;2.50;;
71204;SDS011;58935;54.498;18.544;2024-01-27T13:39:06;6.00;;;2.50;;
71204;SDS011;58935;54.498;18.544;2024-01-27T13:41:31;12.70;;;4.80;;
71204;SDS011;58935;54.498;18.544;2024-01-27T13:43:57;7.10;;;2.30;;
71204;SDS011;58935;54.498;18.544;2024-01-27T13:46:25;16.30;;;3.40;;
71204;SDS011;58935;54.498;18.544;2024-01-27T13:48:53;8.50;;;2.60;;
71204;SDS011;58935;54.498;18.544;2024-01-27T13:51:18;7.10;;;3.60;;
71204;SDS011;58935;54.498;18.544;2024-01-27T13:53:44;8.60;;;3.00;;
71204;SDS011;58935;54.498;18.544;2024-01-27T13:56:12;8.40;;;3.00;;
71204;SDS011;58935;54.498;18.544;2024-01-27T13:58:38;6.00;;;2.50;;
71204;SDS011;58935;54.498;18.544;2024-01-27T14:01:05;8.20;;;2.50;;
71204;SDS011;58935;54.498;18.544;2024-01-27T14:03:33;9.50;;;2.30;;
71204;SDS011;58935;54.498;18.544;2024-01-27T14:06:02;10.80;;;3.80;;
71204;SDS011;58935;54.498;18.544;2024-01-27T14:08:31;8.50;;;2.40;;
71204;SDS011;58935;54.498;18.544;2024-01-27T14:10:56;7.20;;;2.50;;
71204;SDS011;58935;54.498;18.544;2024-01-27T14:13:22;11.00;;;2.90;;
71204;SDS011;58935;54.498;18.544;2024-01-27T14:15:50;7.50;;;2.80;;
71204;SDS011;58935;54.498;18.544;2024-01-27T14:18:15;5.50;;;2.80;;
71204;SDS011;58935;54.498;18.544;2024-01-27T14:20:46;15.40;;;3.70;;
71204;SDS011;58935;54.498;18.544;2024-01-27T14:23:14;7.00;;;2.80;;
71204;SDS011;58935;54.498;18.544;2024-01-27T14:25:40;15.90;;;2.90;;
71204;SDS011;58935;54.498;18.544;2024-01-27T14:28:06;15.00;;;3.90;;
71204;SDS011;58935;54.498;18.544;2024-01-27T14:30:34;9.00;;;2.60;;
71204;SDS011;58935;54.498;18.544;2024-01-27T14:33:02;9.70;;;2.90;;
71204;SDS011;58935;54.498;18.544;2024-01-27T14:35:28;11.60;;;2.90;;
71204;SDS011;58935;54.498;18.544;2024-01-27T14:37:55;12.40;;;3.40;;